Time;durP1;ratioP1;P1;durP2;ratioP2;P2;SDS_P1;SDS_P2;PMS_P1;PMS_P2;Temp;Humidity;BMP_temperature;BMP_pressure;BME280_temperature;BME280_humidity;BME280_pressure;Samples;Min_cycle;Max_cycle;Signal;HPM_P1;HPM_P2
2022/08/05 00:00:06;;;;;;;3.25;2.90;;;;;;;24.62;50.89;100695.22;847382;23;1410;-85
2022/08/05 00:00:28;;;;;;;4.38;2.90;;;;;;;24.58;50.91;100694.47;843280;23;1236;-86
2022/08/05 00:00:48;;;;;;;6.10;3.20;;;;;;;24.58;51.21;100691.78;843698;23;1259;-86
2022/08/05 00:01:12;;;;;;;6.38;3.28;;;;;;;24.60;51.28;100692.59;847926;23;1314;-86
2022/08/05 00:01:33;;;;;;;4.97;3.08;;;;;;;24.56;51.47;100690.97;851559;23;1365;-86
2022/08/05 00:01:54;;;;;;;3.90;3.00;;;;;;;24.52;51.35;100683.97;851498;23;1152;-86
2022/08/05 00:02:15;;;;;;;4.63;3.17;;;;;;;24.53;51.56;100688.38;859856;23;1169;-87
2022/08/05 00:02:37;;;;;;;5.13;3.22;;;;;;;24.49;51.44;100689.44;852039;23;1296;-87
2022/08/05 00:02:58;;;;;;;5.40;3.20;;;;;;;24.40;51.41;100679.88;848231;23;1352;-86
2022/08/05 00:03:19;;;;;;;4.57;3.00;;;;;;;24.38;51.55;100671.06;855867;23;1375;-86
2022/08/05 00:03:40;;;;;;;4.15;2.92;;;;;;;24.40;51.62;100687.88;852023;23;1192;-87
2022/08/05 00:04:00;;;;;;;3.83;3.00;;;;;;;24.36;52.04;100686.25;847899;23;1284;-86
2022/08/05 00:04:21;;;;;;;3.80;3.00;;;;;;;24.32;52.12;100687.25;855522;23;1130;-86
2022/08/05 00:04:42;;;;;;;4.15;2.90;;;;;;;24.32;52.31;100693.47;851804;23;1140;-86
2022/08/05 00:05:04;;;;;;;3.88;2.90;;;;;;;24.33;52.60;100697.00;843369;23;1298;-86
2022/08/05 00:05:25;;;;;;;7.07;3.20;;;;;;;24.25;52.60;100689.25;855749;23;1373;-86
2022/08/05 00:05:45;;;;;;;7.43;3.60;;;;;;;24.28;52.40;100702.47;851509;23;1239;-86
2022/08/05 00:06:07;;;;;;;7.97;3.80;;;;;;;24.24;52.69;100701.69;852743;23;1099;-86
2022/08/05 00:06:32;;;;;;;6.13;3.58;;;;;;;24.21;52.85;100698.25;851394;23;1315;-86
2022/08/05 00:06:53;;;;;;;5.40;3.40;;;;;;;24.19;52.96;100705.41;855794;23;1197;-86
2022/08/05 00:07:13;;;;;;;5.05;3.13;;;;;;;24.15;53.06;100703.78;843180;23;1270;-86
2022/08/05 00:07:34;;;;;;;4.77;3.20;;;;;;;24.13;52.75;100703.81;855750;23;1190;-86
2022/08/05 00:08:47;;;;;;;3.97;3.10;;;;;;;24.16;52.67;100713.53;859707;23;1242;-86
2022/08/05 00:09:08;;;;;;;5.03;3.10;;;;;;;24.02;52.98;100696.13;851551;23;1254;-87
2022/08/05 00:09:29;;;;;;;5.07;3.20;;;;;;;24.01;53.10;100701.50;846947;23;1497;-86
2022/08/05 00:09:50;;;;;;;6.43;3.20;;;;;;;24.04;53.12;100702.28;847089;23;1116;-85
2022/08/05 00:10:11;;;;;;;5.95;3.30;;;;;;;24.01;53.01;100694.41;849252;23;961;-86
2022/08/05 00:10:32;;;;;;;4.75;3.03;;;;;;;24.01;53.38;100696.19;847206;23;1373;-86
2022/08/05 00:10:53;;;;;;;3.85;3.30;;;;;;;23.97;53.22;100687.41;847487;23;1205;-86
2022/08/05 00:11:15;;;;;;;4.78;3.50;;;;;;;24.01;53.39;100693.50;850761;23;1284;-85
2022/08/05 00:11:36;;;;;;;4.53;3.45;;;;;;;24.02;53.39;100697.94;851448;23;1263;-86
2022/08/05 00:11:56;;;;;;;5.32;3.50;;;;;;;24.00;53.29;100689.09;851469;23;1207;-86
2022/08/05 00:12:17;;;;;;;5.47;3.60;;;;;;;23.91;53.29;100682.28;847125;23;1273;-86
2022/08/05 00:12:38;;;;;;;6.57;3.90;;;;;;;23.89;53.40;100684.09;842482;23;1215;-86
2022/08/05 00:12:59;;;;;;;5.38;3.88;;;;;;;23.85;53.39;100683.31;847377;23;1405;-86
2022/08/05 00:13:20;;;;;;;4.90;3.67;;;;;;;23.89;53.58;100684.97;854885;23;1120;-86
2022/08/05 00:13:43;;;;;;;4.32;3.28;;;;;;;23.84;53.71;100689.56;847649;23;1314;-86
2022/08/05 00:14:04;;;;;;;5.50;3.30;;;;;;;23.82;53.87;100689.63;849041;23;1406;-86
2022/08/05 00:14:25;;;;;;;5.55;3.40;;;;;;;23.79;53.72;100683.50;847067;23;1328;-86
2022/08/05 00:14:47;;;;;;;5.13;3.57;;;;;;;23.82;53.64;100680.75;854888;23;1399;-86
2022/08/05 00:15:09;;;;;;;6.40;3.38;;;;;;;23.87;53.53;100681.50;849019;23;1152;-86
2022/08/05 00:15:32;;;;;;;6.28;3.30;;;;;;;23.85;53.63;100671.78;847318;23;1290;-86
2022/08/05 00:15:53;;;;;;;6.07;3.30;;;;;;;23.80;53.41;100669.25;847084;23;1210;-86
2022/08/05 00:16:15;;;;;;;5.25;3.30;;;;;;;23.80;53.19;100666.59;850868;23;1273;-86
2022/08/05 00:16:36;;;;;;;5.53;3.33;;;;;;;23.77;53.30;100666.66;856864;23;1054;-86
2022/08/05 00:16:57;;;;;;;5.72;3.30;;;;;;;23.85;53.53;100671.78;855886;23;1326;-86
2022/08/05 00:17:18;;;;;;;5.60;3.38;;;;;;;23.78;53.32;100669.28;851575;23;1314;-85
2022/08/05 00:17:38;;;;;;;4.90;3.20;;;;;;;23.77;53.50;100670.22;852017;23;1247;-86
2022/08/05 00:17:59;;;;;;;5.00;3.27;;;;;;;23.78;53.33;100665.78;851497;23;1976;-86
2022/08/05 00:18:20;;;;;;;5.35;3.15;;;;;;;23.75;53.57;100672.06;851139;23;1209;-86
2022/08/05 00:18:44;;;;;;;5.50;3.30;;;;;;;23.76;53.28;100676.47;855860;23;1282;-86
2022/08/05 00:19:06;;;;;;;5.18;3.10;;;;;;;23.78;53.31;100681.75;850825;23;1243;-86
2022/08/05 00:19:27;;;;;;;4.80;3.20;;;;;;;23.74;53.42;100675.66;846913;23;1188;-86
2022/08/05 00:19:48;;;;;;;4.68;3.30;;;;;;;23.73;52.87;100673.88;844234;23;1097;-86
2022/08/05 00:20:09;;;;;;;4.35;3.30;;;;;;;23.73;52.96;100678.34;843515;23;1197;-86
2022/08/05 00:20:32;;;;;;;4.38;3.10;;;;;;;23.73;52.89;100683.66;848709;23;1128;-86
2022/08/05 00:20:54;;;;;;;4.35;2.80;;;;;;;23.73;52.86;100681.88;847123;23;1265;-86
2022/08/05 00:21:16;;;;;;;5.35;2.70;;;;;;;23.72;52.93;100673.94;850011;23;1284;-86
2022/08/05 00:22:11;;;;;;;6.13;3.10;;;;;;;23.79;52.96;100686.16;855762;23;1259;-86
2022/08/05 00:22:32;;;;;;;3.75;3.30;;;;;;;23.72;52.61;100687.25;846155;23;1217;-86
2022/08/05 00:22:53;;;;;;;5.20;3.50;;;;;;;23.71;52.67;100691.69;855575;23;1117;-86
2022/08/05 00:23:13;;;;;;;5.88;3.50;;;;;;;23.70;52.68;100689.94;855969;23;1312;-86
2022/08/05 00:23:36;;;;;;;5.87;3.30;;;;;;;23.72;52.66;100698.78;843096;23;1205;-86
2022/08/05 00:23:59;;;;;;;6.28;3.10;;;;;;;23.68;52.35;100687.28;846920;23;1201;-86
2022/08/05 00:24:20;;;;;;;7.22;3.25;;;;;;;23.69;52.06;100704.16;846443;23;1263;-86
2022/08/05 00:24:41;;;;;;;9.82;3.40;;;;;;;23.68;51.85;100702.41;851213;23;1378;-86
2022/08/05 00:25:02;;;;;;;7.97;3.38;;;;;;;23.66;51.99;100699.78;851048;23;1268;-86
2022/08/05 00:25:23;;;;;;;7.05;3.08;;;;;;;23.64;51.97;100698.97;851459;23;1282;-86
2022/08/05 00:25:44;;;;;;;5.10;3.00;;;;;;;23.63;52.07;100699.00;848993;23;1195;-86
2022/08/05 00:26:06;;;;;;;4.47;3.00;;;;;;;23.61;51.98;100693.72;855234;23;1428;-86
2022/08/05 00:26:27;;;;;;;5.03;3.00;;;;;;;23.66;52.06;100706.91;843213;23;1313;-86
2022/08/05 00:26:47;;;;;;;6.22;3.00;;;;;;;23.63;52.07;100696.34;847371;23;1289;-86
2022/08/05 00:27:08;;;;;;;6.70;3.20;;;;;;;23.66;51.83;100705.13;851589;23;1232;-86
2022/08/05 00:27:29;;;;;;;6.18;3.30;;;;;;;23.58;51.68;100698.25;846796;23;1373;-86
2022/08/05 00:27:50;;;;;;;4.93;3.40;;;;;;;23.58;51.88;100700.91;843579;23;1263;-86
2022/08/05 00:28:12;;;;;;;5.07;3.20;;;;;;;23.58;51.80;100699.13;838469;23;1366;-86
2022/08/05 00:28:34;;;;;;;5.88;3.20;;;;;;;23.63;51.72;100704.34;846841;23;1339;-86
2022/08/05 00:28:55;;;;;;;6.53;3.10;;;;;;;23.51;51.94;100679.81;845025;23;924;-86
2022/08/05 00:29:16;;;;;;;5.30;3.10;;;;;;;23.54;51.84;100689.47;844017;23;1326;-84
2022/08/05 00:29:37;;;;;;;4.60;2.97;;;;;;;23.58;51.92;100701.78;846727;23;1364;-86
2022/08/05 00:29:58;;;;;;;4.22;2.80;;;;;;;23.49;51.74;100686.94;851240;23;1145;-86
2022/08/05 00:30:19;;;;;;;5.07;2.77;;;;;;;23.53;51.73;100701.94;855418;23;1309;-87
2022/08/05 00:30:40;;;;;;;5.50;2.85;;;;;;;23.54;51.87;100701.00;843382;23;1145;-87
2022/08/05 00:31:02;;;;;;;4.50;2.80;;;;;;;23.50;51.96;100698.47;846503;23;1219;-85
2022/08/05 00:31:23;;;;;;;4.38;3.03;;;;;;;23.47;52.00;100694.09;854669;23;1408;-86
2022/08/05 00:31:44;;;;;;;3.92;2.90;;;;;;;23.41;52.18;100688.94;853167;23;1127;-86
2022/08/05 00:32:07;;;;;;;3.97;2.88;;;;;;;23.41;52.07;100694.25;847474;23;1189;-86
2022/08/05 00:32:28;;;;;;;3.92;2.70;;;;;;;23.36;51.98;100691.72;851410;23;1330;-86
2022/08/05 00:32:49;;;;;;;6.00;2.80;;;;;;;23.38;52.14;100700.56;851124;23;1192;-86
2022/08/05 00:33:10;;;;;;;5.90;2.90;;;;;;;23.43;51.94;100705.78;855842;23;1273;-86
2022/08/05 00:33:32;;;;;;;6.35;2.88;;;;;;;23.37;51.99;100711.25;851195;23;1264;-86
2022/08/05 00:33:53;;;;;;;5.97;2.92;;;;;;;23.35;51.92;100711.28;851359;23;1347;-86
2022/08/05 00:34:14;;;;;;;5.93;3.00;;;;;;;23.38;52.00;100716.53;843455;23;1307;-86
2022/08/05 00:34:35;;;;;;;5.43;3.10;;;;;;;23.36;51.83;100715.69;848697;23;1151;-86
2022/08/05 00:34:56;;;;;;;4.65;3.10;;;;;;;23.37;51.86;100714.78;850768;23;1246;-86
2022/08/05 00:35:17;;;;;;;5.05;2.90;;;;;;;23.31;51.67;100708.75;851164;23;1399;-86
2022/08/05 00:35:38;;;;;;;4.78;2.92;;;;;;;23.35;51.65;100718.41;847293;23;1155;-86
2022/08/05 00:35:59;;;;;;;4.18;2.90;;;;;;;23.37;51.70;100721.91;842883;23;1206;-86
2022/08/05 00:36:21;;;;;;;4.20;3.08;;;;;;;23.31;51.76;100714.06;843154;23;1455;-86
2022/08/05 00:36:42;;;;;;;3.80;3.05;;;;;;;23.28;51.78;100713.25;847621;23;1404;-86
2022/08/05 00:37:02;;;;;;;3.58;3.03;;;;;;;23.30;51.93;100715.00;856937;23;1111;-86
2022/08/05 00:37:23;;;;;;;3.95;3.00;;;;;;;23.27;51.72;100714.16;847427;23;1324;-86
2022/08/05 00:37:44;;;;;;;4.13;2.85;;;;;;;23.31;51.61;100714.97;854842;23;1270;-86
2022/08/05 00:38:05;;;;;;;4.43;2.80;;;;;;;23.31;51.53;100716.72;847166;23;1891;-86
2022/08/05 00:38:26;;;;;;;4.40;3.00;;;;;;;23.31;51.64;100711.41;847253;23;1311;-86
2022/08/05 00:38:47;;;;;;;4.47;3.05;;;;;;;23.29;51.72;100716.75;851110;23;1349;-86
2022/08/05 00:39:08;;;;;;;4.40;2.83;;;;;;;23.26;51.52;100709.75;847108;23;1274;-86
2022/08/05 00:39:29;;;;;;;4.55;2.70;;;;;;;23.27;51.64;100710.63;842898;23;1186;-85
2022/08/05 00:39:51;;;;;;;4.53;2.72;;;;;;;23.26;52.02;100708.88;846886;23;1262;-86
2022/08/05 00:40:12;;;;;;;5.15;2.72;;;;;;;23.22;52.13;100708.06;847578;23;1356;-87
2022/08/05 00:40:33;;;;;;;5.13;2.80;;;;;;;23.21;51.85;100713.44;847142;23;1196;-86
2022/08/05 00:40:57;;;;;;;5.15;2.70;;;;;;;23.16;52.03;100697.59;855761;23;1249;-86
2022/08/05 00:41:28;;;;;;;4.50;2.90;;;;;;;23.19;52.27;100713.50;851793;23;1331;-86
2022/08/05 00:41:49;;;;;;;5.28;2.97;;;;;;;23.17;52.15;100707.31;851860;23;1344;-86
2022/08/05 00:42:11;;;;;;;5.32;3.00;;;;;;;23.12;52.20;100709.25;855850;23;1488;-86
2022/08/05 00:42:38;;;;;;;5.35;3.10;;;;;;;23.15;52.15;100709.16;851079;23;1275;-86
2022/08/05 00:43:01;;;;;;;4.90;3.00;;;;;;;23.12;52.29;100709.25;847612;23;1350;-86
2022/08/05 00:43:22;;;;;;;4.32;2.72;;;;;;;23.07;52.29;100703.16;851122;23;1483;-86
2022/08/05 00:43:45;;;;;;;5.07;3.00;;;;;;;23.05;52.23;100707.66;851900;23;1289;-86
2022/08/05 00:44:06;;;;;;;3.70;2.75;;;;;;;23.07;52.13;100716.44;847497;23;1277;-87
2022/08/05 00:44:27;;;;;;;4.07;2.92;;;;;;;22.99;52.10;100698.88;854564;23;1269;-87
2022/08/05 00:44:48;;;;;;;3.33;2.63;;;;;;;23.06;52.02;100712.03;851618;23;1202;-87
2022/08/05 00:45:09;;;;;;;3.67;2.78;;;;;;;23.00;52.09;100710.41;851299;23;1152;-87
2022/08/05 00:45:31;;;;;;;3.85;2.80;;;;;;;23.01;52.18;100710.38;850968;23;1222;-87
2022/08/05 00:45:51;;;;;;;3.90;2.80;;;;;;;22.98;52.19;100707.75;846662;23;1382;-86
2022/08/05 00:46:12;;;;;;;4.15;3.10;;;;;;;22.96;52.25;100706.94;847315;23;1230;-87
2022/08/05 00:46:34;;;;;;;4.30;3.22;;;;;;;22.97;52.45;100713.09;847441;23;1352;-87
2022/08/05 00:46:57;;;;;;;4.80;3.28;;;;;;;23.00;52.53;100721.91;843481;23;1210;-87
2022/08/05 00:47:17;;;;;;;5.82;3.05;;;;;;;22.92;52.75;100713.22;851747;23;1226;-87
2022/08/05 00:47:39;;;;;;;5.30;2.80;;;;;;;22.91;52.54;100711.47;851525;23;1170;-87
2022/08/05 00:48:00;;;;;;;5.05;2.67;;;;;;;22.89;52.64;100708.00;847447;23;1210;-87
2022/08/05 00:48:22;;;;;;;4.78;2.65;;;;;;;22.90;52.74;100714.16;847304;23;1245;-87
2022/08/05 00:48:42;;;;;;;5.00;2.90;;;;;;;22.87;53.09;100715.16;851471;23;1307;-87
2022/08/05 00:49:03;;;;;;;4.03;3.10;;;;;;;22.87;52.99;100715.16;855292;23;1185;-87
2022/08/05 00:49:24;;;;;;;3.50;2.90;;;;;;;22.86;52.84;100719.56;847082;23;1442;-87
2022/08/05 00:49:45;;;;;;;3.95;2.83;;;;;;;22.86;52.70;100724.00;846903;23;1221;-87
2022/08/05 00:50:07;;;;;;;4.03;2.70;;;;;;;22.83;52.70;100718.78;847135;23;1214;-87
2022/08/05 00:50:28;;;;;;;4.40;2.97;;;;;;;22.79;53.08;100711.81;846121;23;1264;-87
2022/08/05 00:50:51;;;;;;;4.03;3.00;;;;;;;22.78;52.92;100715.34;853157;23;1036;-86
2022/08/05 00:51:13;;;;;;;3.72;3.00;;;;;;;22.78;52.97;100720.66;853124;23;1121;-87
2022/08/05 00:51:35;;;;;;;4.03;2.70;;;;;;;22.74;53.01;100712.78;859312;23;1329;-87
2022/08/05 00:51:56;;;;;;;3.90;2.70;;;;;;;22.75;53.11;100729.63;851538;23;1236;-87
2022/08/05 00:52:19;;;;;;;4.57;2.75;;;;;;;22.69;53.07;100706.69;843492;23;1254;-87
2022/08/05 00:52:39;;;;;;;4.47;2.70;;;;;;;22.69;53.17;100714.66;839486;23;1182;-87
2022/08/05 00:53:03;;;;;;;5.60;2.90;;;;;;;22.69;53.19;100716.47;844899;23;990;-87
2022/08/05 00:53:23;;;;;;;5.00;3.00;;;;;;;22.60;53.39;100696.25;853202;23;1224;-87
2022/08/05 00:53:44;;;;;;;4.55;3.15;;;;;;;22.65;53.35;100713.00;851810;23;1234;-87
2022/08/05 00:54:05;;;;;;;3.83;3.00;;;;;;;22.66;53.42;100712.06;847718;23;1253;-87
2022/08/05 00:54:26;;;;;;;4.53;3.10;;;;;;;22.64;53.60;100707.69;855852;23;890;-87
2022/08/05 00:54:46;;;;;;;4.75;3.30;;;;;;;22.63;53.68;100712.16;851655;23;1240;-87
2022/08/05 00:55:08;;;;;;;5.30;3.30;;;;;;;22.65;53.49;100709.44;848123;23;1167;-87
2022/08/05 00:55:28;;;;;;;4.15;3.00;;;;;;;22.64;53.55;100710.38;851690;23;1244;-87
2022/08/05 00:55:49;;;;;;;4.78;2.90;;;;;;;22.65;53.53;100715.66;853332;23;1168;-87
2022/08/05 00:56:15;;;;;;;4.65;3.10;;;;;;;22.62;53.46;100715.72;857985;23;1103;-87
2022/08/05 00:56:36;;;;;;;4.80;3.20;;;;;;;22.58;53.67;100703.41;853550;23;794;-87
2022/08/05 00:56:57;;;;;;;6.13;3.33;;;;;;;22.60;53.52;100706.91;856428;23;1160;-87
2022/08/05 00:57:17;;;;;;;8.10;3.37;;;;;;;22.57;53.77;100709.66;848051;23;1227;-87
2022/08/05 00:57:39;;;;;;;8.00;3.40;;;;;;;22.56;53.48;100713.22;852084;23;1289;-86
2022/08/05 00:58:01;;;;;;;5.13;2.97;;;;;;;22.55;53.61;100708.78;856140;23;1921;-87
2022/08/05 00:58:22;;;;;;;3.33;2.80;;;;;;;22.56;53.47;100710.56;851656;23;1358;-87
2022/08/05 00:58:43;;;;;;;3.70;2.80;;;;;;;22.56;53.58;100707.91;856046;23;1225;-87
2022/08/05 00:59:04;;;;;;;4.65;2.90;;;;;;;22.57;53.54;100706.97;847808;23;1171;-87
2022/08/05 00:59:27;;;;;;;4.40;2.90;;;;;;;22.55;53.56;100704.34;849287;23;842;-86
2022/08/05 00:59:48;;;;;;;4.25;2.80;;;;;;;22.59;53.57;100707.81;855199;23;1326;-87
2022/08/05 01:00:10;;;;;;;4.13;3.00;;;;;;;22.62;53.56;100713.03;847990;23;1020;-87
2022/08/05 01:00:32;;;;;;;3.77;2.90;;;;;;;22.59;53.46;100702.50;847766;23;1247;-87
2022/08/05 01:00:54;;;;;;;3.78;3.20;;;;;;;22.66;53.31;100712.06;847762;23;1253;-87
2022/08/05 01:01:15;;;;;;;3.70;3.15;;;;;;;22.66;53.56;100711.19;852146;23;1170;-87
2022/08/05 01:01:37;;;;;;;4.70;3.27;;;;;;;22.63;53.50;100693.56;854979;23;1096;-87
2022/08/05 01:01:57;;;;;;;5.18;3.20;;;;;;;22.66;53.20;100704.09;855568;23;1421;-87
2022/08/05 01:02:19;;;;;;;5.20;3.33;;;;;;;22.66;53.23;100697.88;860168;23;1240;-87
2022/08/05 01:02:40;;;;;;;4.63;3.22;;;;;;;22.62;53.19;100699.75;843861;23;1414;-87
2022/08/05 01:03:01;;;;;;;5.07;3.33;;;;;;;22.67;53.16;100703.19;851788;23;1271;-87
2022/08/05 01:03:23;;;;;;;5.88;3.10;;;;;;;22.71;53.01;100702.22;855413;23;1105;-86
2022/08/05 01:03:44;;;;;;;5.57;3.03;;;;;;;22.66;53.04;100693.47;861624;23;1036;-87
2022/08/05 01:04:05;;;;;;;5.25;2.90;;;;;;;22.64;53.04;100692.63;851731;23;1470;-87
2022/08/05 01:04:26;;;;;;;4.97;3.10;;;;;;;22.65;53.32;100689.06;847251;23;1263;-87
2022/08/05 01:04:47;;;;;;;5.07;3.10;;;;;;;22.61;53.03;100687.38;856792;23;1217;-87
2022/08/05 01:05:08;;;;;;;5.17;3.20;;;;;;;22.62;53.02;100694.44;851668;23;1277;-87
2022/08/05 01:05:29;;;;;;;4.80;3.20;;;;;;;22.59;53.22;100689.19;852726;23;944;-87
2022/08/05 01:05:53;;;;;;;4.72;3.20;;;;;;;22.58;53.45;100690.97;854738;23;1197;-86
2022/08/05 01:06:14;;;;;;;5.28;3.38;;;;;;;22.63;53.46;100696.22;851652;23;1287;-87
2022/08/05 01:06:37;;;;;;;5.60;3.40;;;;;;;22.63;53.39;100695.31;847538;23;1174;-86
2022/08/05 01:06:58;;;;;;;5.10;3.20;;;;;;;22.62;53.61;100702.41;851662;23;1344;-87
2022/08/05 01:07:19;;;;;;;4.57;2.83;;;;;;;22.60;53.74;100696.25;847537;23;1249;-87
2022/08/05 01:07:41;;;;;;;4.60;3.00;;;;;;;22.60;53.60;100693.59;839272;23;1357;-88
2022/08/05 01:08:02;;;;;;;4.03;3.00;;;;;;;22.60;53.69;100697.16;840896;23;1077;-86
2022/08/05 01:08:23;;;;;;;3.87;3.20;;;;;;;22.58;53.51;100687.44;846888;23;1240;-87
2022/08/05 01:08:44;;;;;;;4.70;3.20;;;;;;;22.63;53.40;100697.97;847269;23;1180;-87
2022/08/05 01:09:05;;;;;;;4.80;3.30;;;;;;;22.59;53.46;100690.09;851673;23;1099;-87
2022/08/05 01:09:26;;;;;;;4.47;3.15;;;;;;;22.58;53.51;100693.63;846335;23;1267;-87
2022/08/05 01:09:47;;;;;;;3.50;3.20;;;;;;;22.56;53.57;100689.28;847121;23;1171;-87
2022/08/05 01:10:10;;;;;;;3.35;3.05;;;;;;;22.55;53.54;100690.16;851570;23;1272;-87
2022/08/05 01:10:45;;;;;;;3.30;3.00;;;;;;;22.63;53.61;100704.19;851469;23;1247;-86
2022/08/05 01:11:11;;;;;;;4.20;2.78;;;;;;;22.58;53.73;100701.59;847360;23;1398;-86
2022/08/05 01:11:36;;;;;;;4.82;2.90;;;;;;;22.57;53.62;100691.03;848737;23;1530;-87
2022/08/05 01:12:01;;;;;;;4.90;3.00;;;;;;;22.64;53.86;100702.38;847436;23;1427;-87
2022/08/05 01:12:24;;;;;;;5.80;3.08;;;;;;;22.61;53.74;100703.31;850957;23;1356;-87
2022/08/05 01:12:51;;;;;;;6.35;3.00;;;;;;;22.61;53.66;100700.66;855812;23;1175;-87
2022/08/05 01:13:20;;;;;;;4.78;3.10;;;;;;;22.63;53.81;100701.53;851795;23;1337;-87
2022/08/05 01:14:30;;;;;;;4.43;3.33;;;;;;;22.65;53.57;100705.00;851459;23;1184;-87
2022/08/05 01:15:00;;;;;;;5.80;3.00;;;;;;;22.64;53.71;100703.28;847025;23;1378;-87
2022/08/05 01:15:28;;;;;;;5.35;2.72;;;;;;;22.60;53.46;100696.25;851209;23;1417;-87
2022/08/05 01:15:57;;;;;;;4.57;2.58;;;;;;;22.62;53.50;100702.41;838552;23;1354;-87
2022/08/05 01:16:49;;;;;;;4.78;3.05;;;;;;;22.63;53.65;100705.97;847428;23;1171;-87
2022/08/05 01:17:15;;;;;;;4.70;3.22;;;;;;;22.63;53.64;100711.28;846363;23;1131;-87
2022/08/05 01:17:50;;;;;;;4.57;3.15;;;;;;;22.61;53.78;100708.66;843144;23;1326;-87
2022/08/05 01:18:24;;;;;;;5.20;3.35;;;;;;;22.58;53.79;100703.41;844598;23;1905;-87
2022/08/05 01:18:49;;;;;;;5.45;3.20;;;;;;;22.59;53.98;100707.81;851615;23;1392;-87
2022/08/05 01:19:25;;;;;;;3.92;2.90;;;;;;;22.64;53.71;100713.03;843449;23;1321;-87
2022/08/05 01:19:46;;;;;;;3.78;2.80;;;;;;;22.66;53.71;100712.06;842522;23;1274;-87
2022/08/05 01:20:26;;;;;;;4.57;3.00;;;;;;;22.64;53.92;100708.59;850529;23;1216;-87
2022/08/05 01:21:02;;;;;;;6.10;3.10;;;;;;;22.71;53.88;100711.97;850766;23;1313;-87
2022/08/05 01:21:49;;;;;;;4.57;2.70;;;;;;;22.73;53.40;100713.69;847191;23;1268;-86
2022/08/05 01:22:21;;;;;;;4.10;2.80;;;;;;;22.72;53.50;100713.72;847295;23;1257;-87
2022/08/05 01:23:22;;;;;;;5.00;3.10;;;;;;;22.73;53.39;100711.03;839329;23;1231;-87
2022/08/05 01:24:01;;;;;;;6.10;3.50;;;;;;;22.73;53.72;100703.03;847541;23;1319;-87
2022/08/05 01:24:49;;;;;;;5.07;3.35;;;;;;;22.79;53.60;100717.13;846828;23;1240;-87
2022/08/05 01:25:33;;;;;;;5.00;3.30;;;;;;;22.81;53.22;100712.63;857264;23;942;-87
2022/08/05 01:26:12;;;;;;;3.97;3.10;;;;;;;22.84;53.30;100721.41;852316;23;1323;-87
2022/08/05 01:26:57;;;;;;;3.78;3.08;;;;;;;22.85;53.32;100719.59;850471;23;932;-87
2022/08/05 01:27:29;;;;;;;5.50;3.30;;;;;;;22.84;53.33;100717.84;859733;23;1365;-87
2022/08/05 01:28:07;;;;;;;6.35;3.17;;;;;;;22.87;53.37;100720.47;847273;23;1066;-87
2022/08/05 01:28:54;;;;;;;4.00;3.00;;;;;;;22.86;53.40;100724.00;851326;23;841;-87
2022/08/05 01:29:21;;;;;;;5.70;3.13;;;;;;;22.79;53.30;100711.81;856729;23;1048;-87
2022/08/05 01:29:47;;;;;;;5.50;3.00;;;;;;;22.85;53.53;100716.94;859185;23;1279;-87
2022/08/05 01:30:09;;;;;;;3.22;2.90;;;;;;;22.81;53.52;100717.94;854695;23;1485;-87
2022/08/05 01:30:36;;;;;;;3.90;3.10;;;;;;;22.79;53.41;100712.66;851181;23;1384;-87
2022/08/05 01:31:25;;;;;;;5.00;3.13;;;;;;;22.78;53.50;100710.91;847392;23;1286;-87
2022/08/05 01:31:51;;;;;;;3.80;2.83;;;;;;;22.76;53.29;100701.22;856141;23;1362;-87
2022/08/05 01:32:17;;;;;;;4.93;3.10;;;;;;;22.76;53.45;100715.41;851704;23;1296;-87
2022/08/05 01:32:40;;;;;;;4.75;3.15;;;;;;;22.80;53.48;100716.19;851450;23;1154;-87
2022/08/05 01:33:06;;;;;;;3.63;3.17;;;;;;;22.81;53.37;100720.59;851147;23;1206;-87
2022/08/05 01:33:34;;;;;;;4.10;3.20;;;;;;;22.78;53.55;100712.69;859696;23;1182;-87
2022/08/05 01:34:00;;;;;;;4.90;3.30;;;;;;;22.74;53.56;100702.13;855845;23;1285;-87
2022/08/05 01:34:33;;;;;;;3.95;3.05;;;;;;;22.78;53.53;100720.66;855187;23;1167;-87
2022/08/05 01:34:59;;;;;;;5.90;3.10;;;;;;;22.73;53.45;100713.69;851388;23;1216;-87
2022/08/05 01:35:25;;;;;;;7.82;3.20;;;;;;;22.72;53.38;100713.72;852902;23;1488;-87
2022/08/05 01:35:49;;;;;;;5.43;3.05;;;;;;;22.72;53.62;100706.63;851036;23;1276;-87
2022/08/05 01:36:14;;;;;;;4.20;3.08;;;;;;;22.77;53.57;100713.59;851606;23;1160;-88
2022/08/05 01:36:43;;;;;;;5.30;3.65;;;;;;;22.78;53.63;100718.88;843482;23;1006;-87
2022/08/05 01:37:15;;;;;;;5.63;3.80;;;;;;;22.79;53.62;100715.31;847551;23;1274;-86
2022/08/05 01:37:44;;;;;;;5.35;3.60;;;;;;;22.83;53.38;100718.78;855667;23;1183;-87
2022/08/05 01:38:10;;;;;;;4.53;3.33;;;;;;;22.80;53.30;100718.88;858910;23;1901;-87
2022/08/05 01:38:33;;;;;;;3.55;3.20;;;;;;;22.78;53.51;100715.34;847345;23;1251;-87
2022/08/05 01:38:54;;;;;;;4.80;3.30;;;;;;;22.84;53.23;100726.72;859401;23;1379;-87
2022/08/05 01:39:18;;;;;;;5.20;3.20;;;;;;;22.81;53.30;100720.59;855864;23;1283;-87
2022/08/05 01:39:43;;;;;;;6.80;3.35;;;;;;;22.78;53.21;100710.91;850179;23;1148;-87
2022/08/05 01:40:05;;;;;;;6.22;3.20;;;;;;;22.80;53.40;100718.88;847443;23;1258;-87
2022/08/05 01:40:29;;;;;;;5.75;3.30;;;;;;;22.78;53.65;100718.00;846664;23;1158;-87
2022/08/05 01:40:51;;;;;;;6.50;3.40;;;;;;;22.79;53.41;100717.13;851361;23;1170;-87
2022/08/05 01:41:15;;;;;;;5.20;3.20;;;;;;;22.86;53.26;100726.66;851225;23;1313;-87
2022/08/05 01:41:37;;;;;;;6.60;3.58;;;;;;;22.86;53.32;100734.66;850870;23;1274;-87
2022/08/05 01:42:00;;;;;;;6.28;3.50;;;;;;;22.83;53.22;100729.41;859583;23;1448;-87
2022/08/05 01:42:23;;;;;;;6.13;3.53;;;;;;;22.81;53.09;100734.78;858980;23;1328;-87
2022/08/05 01:42:45;;;;;;;4.65;3.10;;;;;;;22.85;53.31;100732.91;859363;23;1185;-87
2022/08/05 01:43:08;;;;;;;4.10;3.20;;;;;;;22.82;53.16;100733.84;851215;23;1148;-87
2022/08/05 01:43:32;;;;;;;4.03;3.08;;;;;;;22.83;53.35;100730.31;850973;23;1198;-87
2022/08/05 01:44:00;;;;;;;3.95;3.10;;;;;;;22.84;53.42;100731.16;851164;23;1169;-87
2022/08/05 01:44:22;;;;;;;3.75;3.20;;;;;;;22.81;53.14;100725.94;859347;23;1204;-87
2022/08/05 01:44:45;;;;;;;3.47;3.13;;;;;;;22.80;53.19;100724.19;859219;23;1291;-87
2022/08/05 01:45:07;;;;;;;3.80;3.10;;;;;;;22.83;53.38;100737.41;857893;23;1343;-87
2022/08/05 01:45:31;;;;;;;4.85;3.10;;;;;;;22.83;53.41;100729.41;854898;23;1216;-87
2022/08/05 01:45:55;;;;;;;5.32;3.17;;;;;;;22.81;53.41;100723.28;851161;23;998;-87
2022/08/05 01:46:18;;;;;;;6.82;3.10;;;;;;;22.81;53.52;100728.59;852960;23;1323;-87
2022/08/05 01:46:41;;;;;;;6.60;3.20;;;;;;;22.83;53.40;100729.41;852494;23;1426;-87
2022/08/05 01:47:02;;;;;;;5.85;3.40;;;;;;;22.87;53.30;100736.44;852304;23;1246;-87
2022/08/05 01:47:25;;;;;;;5.55;3.13;;;;;;;22.84;53.49;100726.72;852632;23;1384;-87
2022/08/05 01:47:48;;;;;;;5.32;3.00;;;;;;;22.89;53.36;100734.59;848466;23;1380;-86
2022/08/05 01:48:09;;;;;;;4.28;2.85;;;;;;;22.90;53.25;100735.44;848498;23;1228;-87
2022/08/05 01:48:34;;;;;;;3.80;3.20;;;;;;;22.85;53.18;100728.47;848187;23;1176;-87
2022/08/05 01:48:57;;;;;;;3.95;3.30;;;;;;;22.88;53.34;100733.72;852470;23;1150;-86
2022/08/05 01:49:21;;;;;;;3.60;3.20;;;;;;;22.91;53.34;100735.44;852360;23;1137;-86
2022/08/05 01:49:44;;;;;;;3.20;2.90;;;;;;;22.89;53.10;100729.28;851830;23;1334;-86
2022/08/05 01:50:09;;;;;;;3.25;2.95;;;;;;;22.89;53.04;100729.28;848195;23;1385;-86
2022/08/05 01:50:38;;;;;;;4.15;3.40;;;;;;;22.91;53.17;100724.78;843967;23;1339;-87
2022/08/05 01:50:58;;;;;;;4.55;3.50;;;;;;;22.94;52.88;100738.00;851708;23;1298;-85
2022/08/05 01:51:20;;;;;;;4.87;3.53;;;;;;;22.93;52.95;100733.59;856302;23;1136;-87
2022/08/05 01:51:43;;;;;;;4.25;3.22;;;;;;;22.92;52.97;100728.34;853499;23;948;-86
2022/08/05 01:52:06;;;;;;;5.05;3.20;;;;;;;22.94;53.17;100730.03;846758;23;1315;-86
2022/08/05 01:52:28;;;;;;;5.80;3.00;;;;;;;22.95;53.07;100733.56;850874;23;1291;-87
2022/08/05 01:52:52;;;;;;;7.32;3.00;;;;;;;22.90;52.91;100731.03;856135;23;1280;-86
2022/08/05 01:53:15;;;;;;;8.20;3.33;;;;;;;22.97;53.07;100731.72;856168;23;1175;-87
2022/08/05 01:53:38;;;;;;;8.40;3.67;;;;;;;22.98;52.87;100731.72;855958;23;1282;-87
2022/08/05 01:54:01;;;;;;;6.70;3.55;;;;;;;22.98;52.75;100739.69;855783;23;1320;-87
2022/08/05 01:54:25;;;;;;;5.50;3.30;;;;;;;23.00;52.88;100740.53;851586;23;1313;-87